Scroll down
FLIGHT INFORMATION
Federal Express (FedEx)

FDX5279

At Arrival Gate

ZGGG
 VIDP
DATE: 2021-02-15
GATE: 
GATE DEPARTURE: 20:43
TAKEOFF: 20:54
DATE: 2021-02-16
GATE:  -
LANDING: 02:26
GATE ARRIVAL: 02:31
FLIGHT DATA
Crew: 
Speed: 
513 kts
Altitude: 
34,112 ft
Stage Length: 
1,970.7 nm
Block Time: 
5.8 hrs
Flight Time: 
5.5 hrs
Fuel Used: 
102,974 lb
Cleared Route: ZGGG VIBOS ZUH KIBAS BOKAT ADBIN TOMUD BIGRO LH BHY ALEKI NIKUK WUY UVUNO BSE MEPAN ADBAG LXI SGM GULOT MAKUL GMA LINSO LSO ANSOS TEBUL AAT BOGEP RAJ TEBID BIKIK MONDA PPT BODOG LKN JAL VIDP
TRACK DATA
50,000 ft 1,000 kts
AIRCRAFT INFO AND CUMULATIVE STATS
Aircraft Type: 
B77LF
Registration: 
SELCAL: 
LQCR
MSN/LN: 
40674 / 1320
Total Flights: 
1
Total Block Time: 
5.8 hrs
Total Flight Time: 
5.5 hrs
Total Fuel Used: 
102,974 lb
DATALINK LOG | Newest first | Current as of: 2022-10-05 21:34:43
LABEL SEQUENCE CONTENT Dn/Up
QD341302:31 38▼ Dn
QC301002:26▼ Dn
2U0244VIDP 152200Z 00000KT 2000 BR NSC 17/15 Q1011 NOSIG▲ Up
2S0243VIDP▼ Dn
2U1254VIDP 152100Z 00000KT 2000 BR NSC 18/15 Q1011 NOSIG▲ Up
2S1254VIDP▼ Dn
QB574320:54▼ Dn
QA473320:43 141▼ Dn
2U3121ZGGG 151600Z VRB01MPS CAVOK 19/11 Q1015 NOSIG▲ Up
2U3120VOHS 151600Z 13005KT 6000 NSC 23/13 Q1016 NOSIG▲ Up
2U3120VIDP 151600Z 04003KT 2200 HZ NSC 21/14 Q1013 NOSIG▲ Up
2U3119VABB 151630Z 33005KT 3000 HZ NSC 25/19 Q1012 NOSIG▲ Up
2S3119ZGGG VIDP VABB VOHS▼ Dn
A33028CLEARED TO VIDP VIA VIBOS R473 ZUH R200 LH R339 BSE A599 LSO A201 LKN M890 JAL JAL5B. SQUAWK 2173.▲ Up
B33018ZGGG VIDP FDX5279 N868FD ▼ Dn
Q02917[LINK ACK]▲ Up
Q02917[LINK TEST]▼ Dn


AIRCRAFT HISTORY
FLIGHT DATE FLIGHT NO. ORIGIN DESTINATION CLEARED ROUTE BLOCK TIME FLIGHT TIME FUEL USED PILOT
2021-02-15FDX5279ZGGG VIDP ZGGG VIBOS ZUH KIBAS BOKAT ADBIN TOMUD BIGRO LH BHY ALEKI NIKUK WUY UVUNO BSE MEPAN ADBAG LXI SGM GULOT MAKUL GMA LINSO LSO ANSOS TEBUL AAT BOGEP RAJ TEBID BIKIK MONDA PPT BODOG LKN JAL VIDP5.8 hrs5.5 hrs102,974 lbAllan Burek